createdAt,value
2019-05-14T00:02:23.341Z,2.81
2019-05-14T00:04:53.697Z,2.78
2019-05-14T00:07:23.809Z,2.77
2019-05-14T00:09:54.065Z,2.84
2019-05-14T00:12:25.301Z,2.76
2019-05-14T00:14:55.420Z,2.80
2019-05-14T00:17:25.687Z,2.66
2019-05-14T00:20:06.525Z,2.72
2019-05-14T00:22:27.760Z,2.62
2019-05-14T00:24:58.101Z,2.56
2019-05-14T00:27:28.441Z,2.59
2019-05-14T00:29:58.607Z,2.46
2019-05-14T00:32:28.842Z,2.39
2019-05-14T00:35:02.076Z,2.34
2019-05-14T00:37:32.268Z,2.36
2019-05-14T00:40:02.448Z,2.15
2019-05-14T00:42:33.040Z,2.14
2019-05-14T00:45:03.458Z,2.09
2019-05-14T00:47:33.820Z,2.01
2019-05-14T00:50:04.213Z,2.09
2019-05-14T00:52:34.318Z,1.93
2019-05-14T00:55:04.630Z,2.03
2019-05-14T00:57:34.727Z,1.97
2019-05-14T01:00:05.004Z,1.96
2019-05-14T01:02:35.104Z,1.97
2019-05-14T01:05:06.229Z,1.96
2019-05-14T01:07:36.533Z,1.88
2019-05-14T01:10:08.430Z,1.88
2019-05-14T01:12:41.235Z,1.84
2019-05-14T01:15:14.172Z,1.84
2019-05-14T01:17:43.801Z,1.78
2019-05-14T01:20:15.084Z,1.84
2019-05-14T01:22:45.748Z,1.79
2019-05-14T01:25:16.403Z,1.75
2019-05-14T01:27:46.791Z,1.43
2019-05-14T01:30:17.277Z,1.49
2019-05-14T01:32:47.432Z,1.53
2019-05-14T01:35:17.671Z,1.61
2019-05-14T01:37:47.885Z,1.43
2019-05-14T01:40:18.653Z,1.34
2019-05-14T01:42:49.037Z,1.31
2019-05-14T01:45:26.968Z,1.18
2019-05-14T01:47:52.080Z,1.23
2019-05-14T01:50:22.522Z,1.31
2019-05-14T01:52:52.719Z,1.20
2019-05-14T01:55:22.882Z,1.20
2019-05-14T02:05:31.389Z,1.08
2019-05-14T02:08:02.024Z,0.96
2019-05-14T02:10:33.872Z,1.08
2019-05-14T02:13:04.248Z,1.04
2019-05-14T02:15:39.715Z,0.97
2019-05-14T02:18:06.380Z,0.86
2019-05-14T02:20:36.596Z,0.90
2019-05-14T02:23:06.713Z,1.02
2019-05-14T02:25:37.457Z,0.93
2019-05-14T02:28:07.930Z,0.86
2019-05-14T02:30:48.249Z,0.93
2019-05-14T02:33:10.239Z,0.93
2019-05-14T02:35:40.442Z,0.83
2019-05-14T02:38:10.617Z,0.93
2019-05-14T02:40:40.810Z,0.67
2019-05-14T02:43:11.062Z,0.69
2019-05-14T02:46:00.706Z,0.70
2019-05-14T02:48:13.466Z,0.67
2019-05-14T02:50:43.718Z,0.57
2019-05-14T02:53:14.013Z,0.64
2019-05-14T02:55:44.279Z,0.55
2019-05-14T02:58:14.597Z,0.53
2019-05-14T03:00:44.898Z,0.55
2019-05-14T03:03:15.462Z,0.36
2019-05-14T03:05:45.722Z,0.39
2019-05-14T03:08:19.453Z,0.35
2019-05-14T03:10:50.183Z,0.38
2019-05-14T03:13:20.567Z,0.34
2019-05-14T03:15:51.103Z,0.43
2019-05-14T03:18:21.699Z,0.39
2019-05-14T03:20:52.036Z,0.23
2019-05-14T03:23:23.262Z,0.34
2019-05-14T03:25:53.593Z,0.31
2019-05-14T03:28:23.840Z,0.33
2019-05-14T03:30:54.353Z,0.31
2019-05-14T03:33:24.748Z,0.32
2019-05-14T03:36:01.302Z,0.22
2019-05-14T03:38:29.621Z,0.24
2019-05-14T03:41:00.263Z,0.24
2019-05-14T03:43:31.788Z,0.20
2019-05-14T03:46:02.100Z,0.13
2019-05-14T03:48:32.577Z,0.15
2019-05-14T03:51:03.949Z,0.11
2019-05-14T03:53:52.167Z,0.21
2019-05-14T03:56:06.307Z,0.21
2019-05-14T03:58:39.262Z,0.24
2019-05-14T04:01:09.609Z,0.17
2019-05-14T04:03:40.214Z,0.21
2019-05-14T04:06:10.921Z,0.23
2019-05-14T04:08:42.297Z,0.24
2019-05-14T04:11:12.856Z,0.26
2019-05-14T04:13:44.768Z,0.31
2019-05-14T04:16:15.608Z,0.34
2019-05-14T04:18:50.081Z,0.37
2019-05-14T04:21:21.761Z,0.44
2019-05-14T04:23:52.123Z,0.50
2019-05-14T04:26:22.578Z,0.64
2019-05-14T04:28:53.286Z,0.59
2019-05-14T04:31:23.708Z,0.58
2019-05-14T04:33:58.926Z,0.79
2019-05-14T04:36:29.982Z,1.03
2019-05-14T04:39:00.738Z,1.12
2019-05-14T04:41:31.293Z,1.23
2019-05-14T04:44:01.545Z,1.42
2019-05-14T04:46:32.054Z,1.63
2019-05-14T04:49:02.318Z,1.73
2019-05-14T04:51:32.572Z,1.85
2019-05-14T04:54:03.080Z,2.13
2019-05-14T04:56:33.472Z,2.34
2019-05-14T04:59:04.297Z,2.54
2019-05-14T05:01:34.991Z,2.68
2019-05-14T05:04:09.254Z,2.85
2019-05-14T05:06:39.675Z,3.20
2019-05-14T05:09:11.627Z,3.49
2019-05-14T05:11:42.407Z,4.02
2019-05-14T05:14:13.036Z,4.47
2019-05-14T05:16:44.252Z,5.08
2019-05-14T05:19:15.018Z,5.56
2019-05-14T05:21:47.980Z,6.03
2019-05-14T05:24:18.396Z,6.59
2019-05-14T05:26:48.772Z,7.20
2019-05-14T05:29:19.027Z,7.48
2019-05-14T05:31:49.226Z,7.68
2019-05-14T05:34:19.444Z,7.98
2019-05-14T05:36:49.646Z,8.76
2019-05-14T05:39:19.888Z,9.00
2019-05-14T05:41:50.047Z,9.22
2019-05-14T05:44:20.330Z,9.44
2019-05-14T05:46:50.669Z,9.58
2019-05-14T05:49:20.817Z,10.05
2019-05-14T05:51:51.502Z,10.24
2019-05-14T05:54:21.677Z,10.55
2019-05-14T05:56:51.963Z,10.96
2019-05-14T05:59:22.164Z,10.66
2019-05-14T06:01:54.294Z,11.12
2019-05-14T06:04:24.377Z,11.52
2019-05-14T06:06:54.646Z,12.23
2019-05-14T06:09:26.021Z,12.79
2019-05-14T06:11:56.169Z,12.94
2019-05-14T06:14:29.191Z,13.21
2019-05-14T06:17:00.642Z,13.56
2019-05-14T06:19:30.950Z,13.31
2019-05-14T06:22:04.049Z,13.74
2019-05-14T06:24:33.152Z,14.10
2019-05-14T06:27:03.308Z,14.39
2019-05-14T06:29:33.590Z,14.39
2019-05-14T06:32:03.832Z,14.12
2019-05-14T06:34:35.067Z,14.30
2019-05-14T06:37:08.189Z,14.64
2019-05-14T06:39:39.163Z,15.00
2019-05-14T06:42:09.964Z,14.94
2019-05-14T06:44:40.563Z,14.88
2019-05-14T06:47:10.873Z,15.30
2019-05-14T06:49:41.678Z,15.42
2019-05-14T06:52:12.309Z,15.84
2019-05-14T06:54:43.031Z,16.28
2019-05-14T06:57:13.569Z,16.33
2019-05-14T06:59:43.901Z,15.75
2019-05-14T07:02:14.598Z,15.90
2019-05-14T07:04:45.045Z,16.20
2019-05-14T07:07:15.399Z,16.61
2019-05-14T07:09:45.943Z,16.35
2019-05-14T07:12:18.936Z,16.79
2019-05-14T07:14:48.600Z,16.85
2019-05-14T07:17:19.051Z,16.59
2019-05-14T07:19:49.688Z,17.09
2019-05-14T07:22:20.112Z,17.37
2019-05-14T07:24:51.694Z,16.87
2019-05-14T07:27:24.442Z,17.09
2019-05-14T07:29:54.547Z,17.09
2019-05-14T07:32:25.137Z,17.62
2019-05-14T07:34:55.959Z,18.12
2019-05-14T07:37:28.450Z,18.07
2019-05-14T07:39:58.298Z,18.07
2019-05-14T07:42:29.043Z,18.46
2019-05-14T07:44:59.720Z,18.77
2019-05-14T07:47:29.998Z,19.86
2019-05-14T07:50:00.308Z,20.06
2019-05-14T07:52:30.593Z,20.04
2019-05-14T07:55:00.922Z,20.15
2019-05-14T07:57:31.169Z,20.75
2019-05-14T08:00:01.819Z,20.68
2019-05-14T08:02:32.066Z,20.48
2019-05-14T08:05:02.414Z,19.38
2019-05-14T08:07:32.788Z,20.75
2019-05-14T08:10:03.463Z,21.13
2019-05-14T08:12:33.872Z,21.18
2019-05-14T08:15:17.477Z,22.54
2019-05-14T08:17:38.629Z,21.32
2019-05-14T08:20:09.006Z,21.45
2019-05-14T08:22:39.538Z,21.33
2019-05-14T08:25:10.875Z,21.07
2019-05-14T08:27:41.074Z,21.50
2019-05-14T08:30:12.053Z,21.07
2019-05-14T08:32:42.395Z,20.82
2019-05-14T08:35:12.679Z,22.01
2019-05-14T08:37:42.867Z,22.03
2019-05-14T08:40:16.422Z,21.94
2019-05-14T08:42:46.139Z,23.47
2019-05-14T08:45:18.819Z,23.93
2019-05-14T08:47:48.749Z,24.67
2019-05-14T08:50:19.717Z,23.11
2019-05-14T08:52:49.923Z,22.57
2019-05-14T08:55:20.164Z,21.17
2019-05-14T08:57:50.831Z,21.28
2019-05-14T09:00:21.148Z,19.48
2019-05-14T09:02:52.673Z,18.43
2019-05-14T09:05:22.780Z,17.64
2019-05-14T09:07:53.036Z,17.40
2019-05-14T09:10:23.227Z,16.54
2019-05-14T09:12:54.819Z,16.83
2019-05-14T09:15:25.464Z,16.13
2019-05-14T09:17:55.643Z,16.40
2019-05-14T09:20:25.986Z,16.20
2019-05-14T09:22:56.328Z,16.27
2019-05-14T09:25:29.026Z,16.55
2019-05-14T09:27:58.767Z,18.14
2019-05-14T09:30:29.087Z,20.09
2019-05-14T09:33:02.576Z,18.61
2019-05-14T09:35:32.869Z,17.75
2019-05-14T09:38:03.208Z,16.80
2019-05-14T09:40:33.468Z,15.94
2019-05-14T09:43:03.819Z,15.97
2019-05-14T09:45:34.333Z,15.63
2019-05-14T09:48:04.837Z,15.57
2019-05-14T09:50:35.156Z,15.70
2019-05-14T09:53:06.019Z,15.42
2019-05-14T09:55:38.681Z,15.88
2019-05-14T09:58:08.534Z,18.12
2019-05-14T10:00:39.169Z,19.85
2019-05-14T10:03:09.993Z,20.63
2019-05-14T10:05:40.339Z,19.45
2019-05-14T10:08:11.693Z,17.15
2019-05-14T10:10:41.974Z,17.08
2019-05-14T10:13:12.268Z,16.81
2019-05-14T10:15:42.707Z,16.08
2019-05-14T10:18:12.902Z,15.27
2019-05-14T10:20:45.922Z,15.13
2019-05-14T10:23:15.683Z,15.50
2019-05-14T10:25:45.964Z,15.55
2019-05-14T10:28:19.082Z,15.01
2019-05-14T10:30:49.184Z,15.69
2019-05-14T10:33:19.730Z,16.26
2019-05-14T10:35:50.160Z,16.30
2019-05-14T10:38:20.429Z,18.72
2019-05-14T10:40:50.789Z,19.83
2019-05-14T10:43:21.198Z,20.13
2019-05-14T10:45:51.820Z,18.84
2019-05-14T10:48:22.401Z,18.69
2019-05-14T10:50:59.923Z,19.82
2019-05-14T10:53:24.598Z,19.72
2019-05-14T10:55:55.168Z,19.03
2019-05-14T10:58:25.474Z,17.86
2019-05-14T11:00:55.799Z,17.96
2019-05-14T11:03:30.145Z,17.12
2019-05-14T11:06:00.728Z,16.54
2019-05-14T11:08:31.357Z,16.59
2019-05-14T11:11:04.209Z,16.14
2019-05-14T11:13:34.630Z,17.16
2019-05-14T11:16:05.384Z,19.38
2019-05-14T11:18:36.024Z,21.42
2019-05-14T11:21:19.841Z,23.44
2019-05-14T11:23:39.914Z,22.25
2019-05-14T11:26:10.562Z,21.41
2019-05-14T11:28:41.074Z,21.68
2019-05-14T11:31:11.608Z,23.48
2019-05-14T11:33:42.349Z,22.68
2019-05-14T11:36:12.964Z,20.60
2019-05-14T11:38:43.950Z,20.66
2019-05-14T11:41:14.669Z,22.06
2019-05-14T11:43:45.165Z,23.93
2019-05-14T11:46:16.009Z,23.31
2019-05-14T11:48:48.948Z,21.90
2019-05-14T11:51:23.874Z,21.01
2019-05-14T11:53:51.038Z,21.62
2019-05-14T11:56:21.782Z,22.11
2019-05-14T11:58:52.539Z,21.00
2019-05-14T12:01:22.820Z,21.53
2019-05-14T12:03:53.541Z,23.86
2019-05-14T12:06:23.952Z,24.99
2019-05-14T12:08:54.753Z,25.64
2019-05-14T12:11:25.225Z,26.54
2019-05-14T12:13:55.831Z,25.70
2019-05-14T12:16:28.927Z,24.52
2019-05-14T12:18:59.139Z,24.89
2019-05-14T12:21:29.874Z,26.35
2019-05-14T12:24:04.227Z,27.83
2019-05-14T12:26:32.836Z,28.26
2019-05-14T12:29:03.695Z,28.94
2019-05-14T12:31:34.539Z,29.32
2019-05-14T12:34:05.011Z,28.57
2019-05-14T12:36:35.461Z,28.93
2019-05-14T12:39:09.701Z,29.25
2019-05-14T12:41:40.262Z,25.49
2019-05-14T12:44:10.703Z,22.23
2019-05-14T12:46:41.368Z,20.44
2019-05-14T12:49:12.018Z,21.89
2019-05-14T12:51:43.979Z,22.01
2019-05-14T12:54:14.459Z,20.56
2019-05-14T12:56:45.215Z,20.31
2019-05-14T12:59:15.750Z,18.49
2019-05-14T13:01:49.006Z,19.56
2019-05-14T13:04:20.142Z,18.90
2019-05-14T13:06:50.974Z,17.87
2019-05-14T13:09:22.742Z,18.87
2019-05-14T13:11:53.251Z,19.27
2019-05-14T13:14:23.704Z,19.41
2019-05-14T13:16:54.659Z,19.17
2019-05-14T13:19:25.097Z,18.26
2019-05-14T13:22:12.162Z,16.92
2019-05-14T13:24:28.755Z,17.14
2019-05-14T13:26:59.809Z,16.71
2019-05-14T13:29:30.443Z,16.51
2019-05-14T13:32:00.910Z,16.64
2019-05-14T13:34:31.206Z,18.03
2019-05-14T13:37:01.467Z,19.02
2019-05-14T13:39:31.677Z,18.48
2019-05-14T13:42:02.521Z,17.87
2019-05-14T13:44:32.960Z,16.93
2019-05-14T13:47:03.497Z,16.76
2019-05-14T13:49:33.830Z,16.82
2019-05-14T13:52:04.186Z,15.85
2019-05-14T13:54:34.543Z,15.82
2019-05-14T13:57:05.240Z,16.29
2019-05-14T13:59:44.011Z,16.54
2019-05-14T14:02:09.773Z,16.59
2019-05-14T14:04:39.914Z,16.99
2019-05-14T14:07:10.326Z,17.39
2019-05-14T14:09:40.761Z,17.78
2019-05-14T14:12:11.008Z,16.64
2019-05-14T14:14:41.233Z,16.61
2019-05-14T14:17:11.706Z,16.32
2019-05-14T14:19:42.194Z,16.41
2019-05-14T14:22:14.257Z,16.09
2019-05-14T14:24:44.666Z,15.91
2019-05-14T14:27:14.949Z,16.36
2019-05-14T14:29:45.182Z,16.39
2019-05-14T14:32:15.456Z,16.87
2019-05-14T14:34:45.713Z,16.99
2019-05-14T14:37:18.990Z,16.92
2019-05-14T14:39:48.936Z,15.74
2019-05-14T14:42:20.170Z,15.22
2019-05-14T14:44:50.461Z,14.86
2019-05-14T14:47:21.212Z,15.25
2019-05-14T14:49:52.149Z,15.83
2019-05-14T14:52:23.704Z,15.75
2019-05-14T14:54:54.143Z,16.11
2019-05-14T14:57:24.938Z,16.77
2019-05-14T14:59:56.294Z,16.22
2019-05-14T15:02:28.758Z,16.05
2019-05-14T15:04:59.588Z,15.31
2019-05-14T15:07:30.493Z,15.56
2019-05-14T15:10:00.885Z,15.53
2019-05-14T15:12:35.518Z,15.27
2019-05-14T15:15:03.522Z,15.65
2019-05-14T15:17:33.780Z,15.40
2019-05-14T15:20:05.218Z,15.27
2019-05-14T15:22:35.933Z,15.05
2019-05-14T15:25:08.837Z,14.86
2019-05-14T15:27:38.861Z,14.97
2019-05-14T15:30:10.438Z,14.94
2019-05-14T15:32:40.955Z,14.74
2019-05-14T15:35:11.821Z,14.80
2019-05-14T15:37:43.244Z,14.46
2019-05-14T15:40:14.719Z,14.38
2019-05-14T15:42:45.115Z,14.46
2019-05-14T15:45:17.492Z,14.24
2019-05-14T15:47:48.695Z,13.93
2019-05-14T15:50:20.042Z,13.85
2019-05-14T15:52:50.848Z,13.85
2019-05-14T15:55:21.123Z,14.07
2019-05-14T15:57:51.581Z,13.78
2019-05-14T16:00:22.203Z,13.97
2019-05-14T16:02:52.555Z,13.77
2019-05-14T16:05:23.045Z,13.93
2019-05-14T16:07:53.289Z,13.89
2019-05-14T16:10:23.941Z,14.06
2019-05-14T16:12:54.420Z,14.08
2019-05-14T16:15:24.813Z,14.08
2019-05-14T16:18:07.185Z,13.70
2019-05-14T16:20:29.615Z,13.59
2019-05-14T16:22:59.614Z,13.30
2019-05-14T16:25:30.140Z,13.08
2019-05-14T16:28:00.676Z,13.23
2019-05-14T16:30:31.237Z,13.32
2019-05-14T16:33:01.659Z,13.46
2019-05-14T16:35:33.029Z,13.70
2019-05-14T16:38:03.413Z,13.84
2019-05-14T16:40:33.711Z,14.04
2019-05-14T16:43:04.338Z,13.96
2019-05-14T16:45:35.003Z,13.99
2019-05-14T16:48:10.962Z,13.62
2019-05-14T16:50:38.069Z,13.47
2019-05-14T16:53:11.719Z,13.20
2019-05-14T16:55:41.715Z,12.96
2019-05-14T16:58:11.940Z,12.70
2019-05-14T17:00:42.831Z,12.77
2019-05-14T17:03:13.290Z,12.48
2019-05-14T17:05:44.875Z,12.34
2019-05-14T17:08:15.245Z,12.27
2019-05-14T17:10:45.451Z,12.10
2019-05-14T17:13:17.847Z,12.26
2019-05-14T17:15:48.191Z,12.11
2019-05-14T17:18:19.361Z,12.25
2019-05-14T17:20:50.039Z,12.28
2019-05-14T17:23:20.411Z,12.30
2019-05-14T17:25:50.813Z,12.37
2019-05-14T17:28:21.405Z,12.47
2019-05-14T17:30:51.867Z,12.49
2019-05-14T17:33:22.183Z,12.26
2019-05-14T17:35:52.586Z,12.17
2019-05-14T17:38:22.890Z,12.11
2019-05-14T17:40:53.600Z,11.99
2019-05-14T17:43:23.936Z,11.92
2019-05-14T17:45:58.706Z,11.73
2019-05-14T17:48:29.094Z,11.69
2019-05-14T17:50:59.667Z,11.72
2019-05-14T17:53:30.254Z,11.58
2019-05-14T17:56:00.857Z,11.58
2019-05-14T17:58:31.225Z,11.61
2019-05-14T18:01:02.051Z,11.69
2019-05-14T18:03:33.608Z,11.75
2019-05-14T18:06:04.592Z,11.69
2019-05-14T18:08:35.488Z,11.62
2019-05-14T18:11:08.795Z,11.67
2019-05-14T18:13:39.721Z,11.62
2019-05-14T18:16:10.329Z,11.53
2019-05-14T18:18:41.476Z,11.36
2019-05-14T18:21:12.633Z,11.34
2019-05-14T18:23:43.360Z,11.30
2019-05-14T18:26:14.368Z,11.16
2019-05-14T18:28:45.317Z,11.10
2019-05-14T18:31:15.829Z,11.13
2019-05-14T18:33:49.151Z,11.07
2019-05-14T18:36:19.681Z,10.89
2019-05-14T18:38:52.660Z,10.81
2019-05-14T18:41:23.199Z,10.93
2019-05-14T18:43:54.125Z,10.91
2019-05-14T18:46:25.375Z,10.94
2019-05-14T18:48:56.121Z,10.80
2019-05-14T18:51:28.744Z,10.74
2019-05-14T18:53:59.385Z,10.65
2019-05-14T18:56:30.076Z,10.55
2019-05-14T18:59:01.544Z,10.55
2019-05-14T19:01:32.271Z,10.45
2019-05-14T19:04:03.310Z,10.45
2019-05-14T19:06:33.701Z,10.38
2019-05-14T19:09:05.733Z,10.26
2019-05-14T19:11:38.757Z,10.17
2019-05-14T19:14:09.410Z,10.06
2019-05-14T19:16:48.957Z,10.03
2019-05-14T19:19:20.678Z,9.94
2019-05-14T19:21:51.495Z,9.85
2019-05-14T19:24:25.610Z,9.76
2019-05-14T19:26:59.370Z,9.60
2019-05-14T19:29:29.543Z,9.33
2019-05-14T19:32:00.323Z,9.15
2019-05-14T19:34:31.493Z,9.05
2019-05-14T19:37:02.235Z,8.93
2019-05-14T19:39:33.004Z,8.95
2019-05-14T19:42:03.751Z,8.98
2019-05-14T19:44:34.562Z,9.06
2019-05-14T19:47:05.855Z,9.15
2019-05-14T19:49:38.223Z,9.22
2019-05-14T19:52:08.701Z,9.28
2019-05-14T19:54:39.295Z,9.32
2019-05-14T19:57:10.169Z,9.38
2019-05-14T19:59:40.885Z,9.44
2019-05-14T20:02:11.822Z,9.37
2019-05-14T20:04:42.636Z,9.27
2019-05-14T20:07:14.373Z,9.27
2019-05-14T20:09:45.063Z,9.18
2019-05-14T20:12:18.087Z,9.10
2019-05-14T20:14:49.047Z,9.05
2019-05-14T20:17:20.287Z,9.01
2019-05-14T20:19:51.064Z,9.03
2019-05-14T20:22:21.705Z,9.02
2019-05-14T20:24:52.520Z,9.03
2019-05-14T20:27:23.234Z,8.98
2019-05-14T20:29:53.772Z,9.04
2019-05-14T20:32:24.511Z,9.02
2019-05-14T20:34:55.046Z,9.03
2019-05-14T20:37:25.690Z,9.00
2019-05-14T20:39:56.272Z,9.02
2019-05-14T20:42:28.990Z,8.92
2019-05-14T20:44:59.835Z,8.71
2019-05-14T20:47:32.431Z,8.68
2019-05-14T20:50:03.631Z,8.66
2019-05-14T20:52:34.296Z,8.49
2019-05-14T20:55:05.437Z,8.44
2019-05-14T20:57:38.275Z,8.44
2019-05-14T21:00:11.646Z,8.34
2019-05-14T21:02:42.259Z,8.26
2019-05-14T21:05:14.420Z,8.16
2019-05-14T21:07:49.283Z,8.08
2019-05-14T21:10:21.505Z,8.00
2019-05-14T21:12:52.119Z,7.93
2019-05-14T21:15:22.661Z,7.92
2019-05-14T21:17:53.088Z,7.89
2019-05-14T21:20:25.003Z,7.88
2019-05-14T21:22:55.309Z,7.80
2019-05-14T21:25:25.785Z,7.80
2019-05-14T21:27:58.786Z,7.75
2019-05-14T21:30:30.332Z,7.74
2019-05-14T21:33:01.085Z,7.58
2019-05-14T21:35:31.484Z,7.54
2019-05-14T21:38:01.594Z,7.55
2019-05-14T21:40:32.229Z,7.48
2019-05-14T21:43:04.410Z,7.50
2019-05-14T21:45:34.851Z,7.37
2019-05-14T21:48:05.139Z,7.49
2019-05-14T21:50:35.670Z,7.32
2019-05-14T21:53:08.209Z,7.39
2019-05-14T21:55:38.787Z,7.28
2019-05-14T21:58:11.854Z,7.18
2019-05-14T22:00:48.305Z,7.08
2019-05-14T22:03:20.584Z,7.00
2019-05-14T22:05:51.627Z,6.98
2019-05-14T22:08:23.427Z,6.93
2019-05-14T22:10:53.702Z,6.79
2019-05-14T22:13:24.639Z,6.76
2019-05-14T22:15:55.192Z,6.77
2019-05-14T22:18:27.755Z,6.61
2019-05-14T22:21:00.352Z,6.41
2019-05-14T22:23:30.574Z,6.29
2019-05-14T22:26:00.683Z,6.39
2019-05-14T22:28:30.891Z,6.42
2019-05-14T22:31:01.094Z,6.41
2019-05-14T22:33:31.234Z,6.29
2019-05-14T22:36:01.462Z,6.13
2019-05-14T22:38:31.893Z,6.19
2019-05-14T22:41:02.262Z,6.17
2019-05-14T22:43:32.542Z,6.15
2019-05-14T22:46:02.883Z,6.09
2019-05-14T22:48:33.332Z,5.99
2019-05-14T22:51:03.596Z,5.94
2019-05-14T22:53:33.891Z,5.88
2019-05-14T22:56:04.187Z,5.80
2019-05-14T22:58:34.459Z,5.72
2019-05-14T23:01:14.215Z,5.66
2019-05-14T23:03:39.364Z,5.63
2019-05-14T23:06:09.150Z,5.55
2019-05-14T23:08:39.795Z,5.45
2019-05-14T23:11:10.027Z,5.40
2019-05-14T23:13:40.441Z,5.36
2019-05-14T23:16:11.357Z,5.33
2019-05-14T23:18:43.889Z,5.24
2019-05-14T23:21:14.006Z,5.18
2019-05-14T23:23:44.193Z,5.09
2019-05-14T23:26:14.370Z,4.98
2019-05-14T23:28:45.820Z,4.89
2019-05-14T23:31:16.389Z,4.85
2019-05-14T23:33:49.054Z,4.78
2019-05-14T23:36:19.791Z,4.69
2019-05-14T23:38:50.245Z,4.61
2019-05-14T23:41:20.396Z,4.55
2019-05-14T23:43:50.550Z,4.51
2019-05-14T23:46:20.806Z,4.47
2019-05-14T23:48:50.961Z,4.42
2019-05-14T23:51:21.109Z,4.42
2019-05-14T23:53:51.274Z,4.31
2019-05-14T23:56:21.420Z,4.21
2019-05-14T23:59:01.081Z,4.00
